Time;durP1;ratioP1;P1;durP2;ratioP2;P2;SDS_P1;SDS_P2;PMS_P1;PMS_P2;Temp;Humidity;BMP_temperature;BMP_pressure;BME280_temperature;BME280_humidity;BME280_pressure;Samples;Min_cycle;Max_cycle;Signal;HPM_P1;HPM_P2
2022/11/13 00:01:47;;;;;;;11.50;8.63;;;18.20;56.00;;;;;;5094522;28;20453;-80
2022/11/13 00:04:15;;;;;;;12.40;8.73;;;18.20;56.00;;;;;;5093905;28;20468;-80
2022/11/13 00:06:43;;;;;;;10.93;9.03;;;18.20;56.00;;;;;;5094431;28;20495;-80
2022/11/13 00:09:12;;;;;;;11.67;9.27;;;18.20;56.00;;;;;;5094420;28;20449;-80
2022/11/13 00:11:41;;;;;;;11.77;8.90;;;18.20;56.00;;;;;;5094599;28;20470;-81
2022/11/13 00:14:09;;;;;;;10.33;8.53;;;18.20;56.10;;;;;;5094158;28;20460;-81
2022/11/13 00:16:37;;;;;;;13.20;9.50;;;18.20;56.00;;;;;;5093738;28;20433;-81
2022/11/13 00:19:05;;;;;;;13.77;8.47;;;18.20;56.00;;;;;;5093504;28;20453;-81
2022/11/13 00:21:33;;;;;;;12.50;9.20;;;18.10;55.90;;;;;;5093783;28;20449;-81
2022/11/13 00:24:01;;;;;;;14.17;9.43;;;18.10;55.90;;;;;;5093540;28;20460;-81
2022/11/13 00:26:30;;;;;;;10.57;8.30;;;18.10;56.00;;;;;;5093802;28;20472;-81
2022/11/13 00:29:00;;;;;;;9.40;8.13;;;18.10;56.00;;;;;;5092554;28;20494;-80
2022/11/13 00:31:28;;;;;;;10.03;8.20;;;18.10;56.00;;;;;;5095846;28;20437;-79
2022/11/13 00:33:55;;;;;;;10.80;8.77;;;18.10;55.90;;;;;;5095971;28;20457;-80
2022/11/13 00:36:43;;;;;;;10.83;8.87;;;18.10;56.00;;;;;;5094559;28;20429;-80
2022/11/13 00:39:11;;;;;;;11.10;9.17;;;18.10;55.90;;;;;;5094594;28;20451;-80
2022/11/13 00:41:40;;;;;;;11.47;8.90;;;18.10;56.20;;;;;;5094396;28;20439;-80
2022/11/13 00:44:09;;;;;;;9.93;8.30;;;18.10;56.10;;;;;;5094715;28;20449;-80
2022/11/13 00:46:37;;;;;;;11.73;8.63;;;18.10;56.20;;;;;;5095088;28;20465;-80
2022/11/13 00:49:05;;;;;;;13.90;8.93;;;18.10;56.20;;;;;;5095903;28;20486;-80
2022/11/13 00:51:33;;;;;;;11.73;8.77;;;18.00;56.00;;;;;;5094252;28;20467;-80
2022/11/13 00:54:01;;;;;;;10.57;8.20;;;18.00;56.00;;;;;;5094878;28;20461;-80
2022/11/13 00:56:29;;;;;;;10.23;8.33;;;18.00;56.20;;;;;;5094281;28;20447;-81
2022/11/13 00:58:59;;;;;;;11.13;8.30;;;18.00;56.20;;;;;;5094416;28;20542;-81
2022/11/13 01:01:27;;;;;;;11.03;8.07;;;18.00;56.30;;;;;;5094753;28;20449;-80
2022/11/13 01:03:56;;;;;;;14.90;9.03;;;18.00;56.20;;;;;;5096263;28;20472;-82
2022/11/13 01:06:24;;;;;;;10.80;8.30;;;18.00;56.20;;;;;;5094504;28;20449;-81
2022/11/13 01:08:54;;;;;;;9.70;8.17;;;18.00;56.10;;;;;;5094821;28;20445;-80
2022/11/13 01:11:23;;;;;;;12.53;9.13;;;17.90;56.10;;;;;;5094097;28;20448;-81
2022/11/13 01:13:51;;;;;;;11.67;8.93;;;17.90;56.10;;;;;;5093579;28;20987;-81
2022/11/13 01:16:21;;;;;;;12.70;9.63;;;18.00;56.40;;;;;;5097270;28;20497;-81
2022/11/13 01:18:49;;;;;;;12.67;9.13;;;17.90;56.20;;;;;;5103375;28;20498;-81
2022/11/13 01:21:19;;;;;;;10.73;8.23;;;17.90;56.20;;;;;;5103236;28;20432;-81
2022/11/13 01:23:46;;;;;;;11.13;8.70;;;17.90;56.30;;;;;;5102775;28;20464;-80
2022/11/13 01:26:15;;;;;;;10.80;8.30;;;17.90;56.30;;;;;;5102019;28;20440;-80
2022/11/13 01:28:43;;;;;;;11.50;8.93;;;17.80;56.10;;;;;;5101723;28;20444;-80
2022/11/13 01:31:15;;;;;;;9.80;8.13;;;17.80;56.20;;;;;;5100927;28;20447;-80
2022/11/13 01:33:44;;;;;;;11.13;8.77;;;17.80;56.20;;;;;;5100396;28;20456;-81
2022/11/13 01:36:13;;;;;;;11.57;8.67;;;17.80;56.30;;;;;;5101304;28;20433;-81
2022/11/13 01:38:41;;;;;;;11.57;8.60;;;17.80;56.40;;;;;;5100891;28;20436;-81
2022/11/13 01:41:11;;;;;;;10.00;7.80;;;17.80;56.20;;;;;;5101088;28;20444;-80
2022/11/13 01:43:39;;;;;;;12.73;9.03;;;17.80;56.30;;;;;;5101165;28;20468;-79
2022/11/13 01:46:12;;;;;;;10.90;8.67;;;17.80;56.30;;;;;;5101441;28;20441;-82
2022/11/13 01:52:31;;;;;;;9.37;8.10;;;17.80;56.20;;;;;;5103420;28;20498;-80
2022/11/13 01:55:00;;;;;;;8.47;7.57;;;17.70;56.90;;;;;;5102684;28;20460;-80
2022/11/13 01:57:28;;;;;;;11.10;8.30;;;17.70;56.30;;;;;;5103717;28;20445;-80
2022/11/13 01:59:58;;;;;;;10.37;8.40;;;17.70;56.50;;;;;;5103004;28;20440;-80
2022/11/13 02:02:26;;;;;;;10.07;8.23;;;17.70;56.50;;;;;;5102781;28;20444;-80
2022/11/13 02:04:54;;;;;;;12.80;8.97;;;17.70;56.40;;;;;;5102441;28;20471;-80
2022/11/13 02:07:23;;;;;;;11.10;8.10;;;17.70;56.30;;;;;;5100173;28;20544;-80
2022/11/13 02:09:54;;;;;;;10.17;8.40;;;17.70;56.20;;;;;;5099571;28;20536;-80
2022/11/13 02:12:25;;;;;;;10.47;8.33;;;17.70;56.50;;;;;;5100485;28;20455;-81
2022/11/13 02:14:54;;;;;;;11.43;8.47;;;17.70;56.50;;;;;;5099228;28;20456;-81
2022/11/13 02:17:25;;;;;;;10.70;8.60;;;17.70;56.40;;;;;;5099234;28;20440;-80
2022/11/13 02:19:55;;;;;;;9.70;8.30;;;17.60;56.40;;;;;;5099355;28;20424;-80
2022/11/13 02:22:26;;;;;;;9.97;8.30;;;17.70;56.50;;;;;;5099216;28;20444;-81
2022/11/13 02:24:55;;;;;;;10.53;8.60;;;17.70;56.50;;;;;;5098821;28;20457;-81
2022/11/13 02:27:26;;;;;;;11.50;8.87;;;17.60;56.40;;;;;;5096454;28;20475;-80
2022/11/13 02:29:53;;;;;;;10.93;8.50;;;17.60;56.50;;;;;;5095092;28;20444;-81
2022/11/13 02:32:22;;;;;;;9.17;7.63;;;17.60;56.40;;;;;;5095396;28;20644;-81
2022/11/13 02:34:50;;;;;;;10.70;7.90;;;17.60;56.50;;;;;;5095362;28;20468;-81
2022/11/13 02:37:18;;;;;;;13.50;8.10;;;17.60;56.40;;;;;;5095443;28;20437;-81
2022/11/13 02:39:46;;;;;;;9.90;7.90;;;17.60;56.60;;;;;;5105517;28;20448;-81
2022/11/13 02:42:16;;;;;;;9.27;7.80;;;17.60;56.50;;;;;;5115479;28;20432;-81
2022/11/13 02:44:43;;;;;;;9.90;7.80;;;17.60;56.50;;;;;;5115830;28;20463;-80
2022/11/13 02:47:12;;;;;;;9.33;7.37;;;17.60;56.60;;;;;;5115538;28;20444;-81
2022/11/13 02:49:40;;;;;;;10.07;8.27;;;17.60;56.40;;;;;;5115528;28;20497;-81
2022/11/13 02:52:08;;;;;;;9.03;8.00;;;17.60;56.40;;;;;;5115374;28;20443;-81
2022/11/13 02:54:36;;;;;;;9.70;7.90;;;17.50;56.50;;;;;;5115142;28;20460;-81
2022/11/13 02:57:04;;;;;;;8.90;7.27;;;17.50;56.50;;;;;;5115838;28;20436;-82
2022/11/13 02:59:34;;;;;;;8.40;7.33;;;17.60;56.60;;;;;;5116164;28;20432;-81
2022/11/13 03:02:02;;;;;;;8.33;7.13;;;17.50;56.50;;;;;;5115860;28;20447;-82
2022/11/13 03:04:30;;;;;;;10.67;8.03;;;17.50;56.40;;;;;;5115839;28;20491;-82
2022/11/13 03:07:18;;;;;;;10.60;8.30;;;17.50;56.30;;;;;;5115890;28;20469;-83
2022/11/13 03:09:46;;;;;;;8.90;7.57;;;17.50;56.60;;;;;;5115966;28;20443;-82
2022/11/13 03:12:14;;;;;;;9.43;7.47;;;17.50;56.40;;;;;;5116099;28;20436;-82
2022/11/13 03:14:44;;;;;;;9.73;7.87;;;17.40;56.60;;;;;;5116061;28;20483;-82
2022/11/13 03:17:12;;;;;;;9.50;7.93;;;17.50;56.60;;;;;;5115929;28;20443;-81
2022/11/13 03:19:41;;;;;;;11.20;7.70;;;17.40;57.10;;;;;;5115043;28;20451;-83
2022/11/13 03:22:09;;;;;;;9.37;7.90;;;17.40;56.60;;;;;;5115572;28;20444;-80
2022/11/13 03:24:37;;;;;;;8.03;7.07;;;17.40;56.60;;;;;;5115804;28;20455;-83
2022/11/13 03:27:05;;;;;;;9.60;8.20;;;17.40;56.40;;;;;;5119316;28;20522;-82
2022/11/13 03:29:33;;;;;;;8.60;7.30;;;17.40;56.50;;;;;;5119053;28;20463;-83
2022/11/13 03:32:03;;;;;;;9.60;7.90;;;17.40;56.60;;;;;;5121071;28;20460;-83
2022/11/13 03:34:31;;;;;;;9.73;7.67;;;17.40;56.60;;;;;;5120845;28;20475;-80
2022/11/13 03:36:59;;;;;;;9.20;7.23;;;17.40;56.60;;;;;;5120179;28;20454;-83
2022/11/13 03:39:27;;;;;;;10.07;7.63;;;17.40;56.50;;;;;;5119345;28;20444;-82
2022/11/13 03:41:55;;;;;;;8.63;7.47;;;17.40;56.40;;;;;;5119816;28;20451;-83
2022/11/13 03:44:23;;;;;;;8.30;7.40;;;17.40;56.50;;;;;;5122311;28;20474;-81
2022/11/13 03:46:51;;;;;;;10.13;7.83;;;17.30;56.50;;;;;;5120135;28;20480;-83
2022/11/13 03:49:21;;;;;;;9.20;7.60;;;17.30;56.40;;;;;;5120392;28;20471;-84
2022/11/13 03:51:48;;;;;;;9.30;7.97;;;17.30;56.40;;;;;;5120564;28;20439;-83
2022/11/13 03:54:17;;;;;;;8.30;7.13;;;17.30;56.40;;;;;;5120151;28;20550;-84
2022/11/13 03:56:45;;;;;;;14.40;10.63;;;17.30;56.60;;;;;;5121356;28;20443;-83
2022/11/13 03:59:13;;;;;;;16.33;11.23;;;17.30;56.50;;;;;;5121329;28;20451;-83
2022/11/13 04:01:41;;;;;;;12.87;9.93;;;17.30;56.40;;;;;;5121219;28;20440;-83
2022/11/13 04:04:09;;;;;;;12.53;9.77;;;17.30;56.50;;;;;;5120041;28;20455;-82
2022/11/13 04:06:38;;;;;;;12.93;9.70;;;17.20;57.10;;;;;;5120390;28;20436;-82
2022/11/13 04:09:06;;;;;;;11.67;9.17;;;17.20;56.50;;;;;;5120455;28;20539;-83
2022/11/13 04:11:35;;;;;;;14.50;9.40;;;17.30;56.70;;;;;;5119609;28;20438;-82
2022/11/13 04:14:02;;;;;;;11.30;8.73;;;17.20;56.40;;;;;;5118757;28;20459;-82
2022/11/13 04:16:30;;;;;;;14.27;9.03;;;17.20;56.60;;;;;;5118937;28;20436;-82
2022/11/13 04:18:58;;;;;;;12.90;9.13;;;17.20;56.70;;;;;;5119180;28;20432;-81
2022/11/13 04:21:27;;;;;;;11.50;8.03;;;17.20;56.70;;;;;;5119450;28;20450;-83
2022/11/13 04:23:57;;;;;;;12.20;9.20;;;17.20;56.50;;;;;;5118460;28;20834;-83
2022/11/13 04:26:25;;;;;;;11.90;9.13;;;17.20;56.60;;;;;;5120717;28;20443;-84
2022/11/13 04:28:53;;;;;;;12.67;9.17;;;17.20;56.70;;;;;;5119768;28;20475;-83
2022/11/13 04:31:21;;;;;;;12.03;9.10;;;17.20;56.60;;;;;;5119896;28;20436;-82
2022/11/13 04:33:49;;;;;;;11.13;8.27;;;17.20;56.70;;;;;;5118969;28;20459;-82
2022/11/13 04:36:17;;;;;;;12.43;8.83;;;17.20;56.50;;;;;;5118853;28;20450;-83
2022/11/13 04:38:45;;;;;;;10.97;7.57;;;17.20;56.50;;;;;;5119313;28;20930;-83
2022/11/13 04:44:00;;;;;;;9.80;7.73;;;17.10;56.60;;;;;;5119875;28;20460;-83
2022/11/13 04:46:28;;;;;;;8.73;7.67;;;17.10;56.60;;;;;;5118923;28;20486;-83
2022/11/13 04:48:56;;;;;;;12.80;8.97;;;17.10;56.70;;;;;;5120175;28;20464;-83
2022/11/13 04:51:24;;;;;;;10.20;8.30;;;17.10;56.60;;;;;;5118494;28;20444;-83
2022/11/13 04:53:52;;;;;;;8.87;7.40;;;17.10;56.80;;;;;;5118502;28;20464;-83
2022/11/13 04:56:22;;;;;;;8.40;7.23;;;17.00;56.60;;;;;;5120711;28;20436;-84
2022/11/13 04:58:50;;;;;;;9.13;7.70;;;17.00;56.60;;;;;;5119984;28;20442;-84
2022/11/13 05:01:18;;;;;;;9.27;7.80;;;17.00;56.60;;;;;;5120281;28;20443;-84
2022/11/13 05:03:46;;;;;;;8.97;7.50;;;17.00;56.60;;;;;;5119946;28;20551;-84
2022/11/13 05:06:14;;;;;;;11.83;8.63;;;17.00;56.50;;;;;;5119419;28;20454;-84
2022/11/13 05:08:43;;;;;;;10.80;8.27;;;17.00;56.70;;;;;;5120427;28;20467;-84
2022/11/13 05:11:11;;;;;;;10.23;7.77;;;17.00;56.70;;;;;;5120404;28;20443;-83
2022/11/13 05:13:40;;;;;;;8.93;7.50;;;17.00;56.50;;;;;;5119480;28;20456;-84
2022/11/13 05:16:09;;;;;;;8.60;7.17;;;16.90;56.60;;;;;;5119101;28;20432;-82
2022/11/13 05:18:38;;;;;;;9.53;7.67;;;17.00;56.60;;;;;;5119384;28;20444;-82
2022/11/13 05:21:06;;;;;;;9.13;7.23;;;17.00;56.60;;;;;;5118521;28;20440;-82
2022/11/13 05:23:34;;;;;;;7.70;6.90;;;17.00;56.60;;;;;;5118542;28;20446;-82
2022/11/13 05:26:02;;;;;;;9.10;6.93;;;16.90;56.40;;;;;;5118615;28;20443;-82
2022/11/13 05:28:30;;;;;;;9.43;7.80;;;16.90;56.50;;;;;;5117430;28;20431;-82
2022/11/13 05:31:06;;;;;;;9.57;7.23;;;16.90;56.40;;;;;;5117919;28;20934;-82
2022/11/13 05:33:35;;;;;;;11.23;8.00;;;16.90;56.50;;;;;;5114009;28;20454;-82
2022/11/13 05:36:03;;;;;;;8.23;7.23;;;16.90;56.40;;;;;;5114335;28;20440;-81
2022/11/13 05:38:32;;;;;;;11.23;7.83;;;16.80;56.40;;;;;;5113759;28;20451;-82
2022/11/13 05:41:04;;;;;;;10.63;7.63;;;16.80;56.40;;;;;;5112692;28;20444;-82
2022/11/13 05:43:32;;;;;;;9.23;7.50;;;16.80;56.30;;;;;;5113043;28;20474;-82
2022/11/13 05:46:01;;;;;;;8.97;7.33;;;16.80;56.50;;;;;;5113189;28;20448;-82
2022/11/13 05:48:31;;;;;;;9.27;7.17;;;16.80;56.40;;;;;;5113990;28;20444;-82
2022/11/13 05:51:02;;;;;;;8.47;7.13;;;16.80;56.40;;;;;;5115581;28;20471;-83
2022/11/13 05:53:32;;;;;;;10.43;7.50;;;16.80;56.40;;;;;;5115091;28;20436;-82
2022/11/13 05:56:00;;;;;;;9.30;7.80;;;16.80;56.30;;;;;;5112865;28;20439;-82
2022/11/13 05:58:29;;;;;;;9.77;7.40;;;16.80;56.30;;;;;;5113017;28;20432;-82
2022/11/13 06:01:05;;;;;;;10.23;7.80;;;16.70;56.20;;;;;;5113050;28;20455;-84
2022/11/13 06:03:35;;;;;;;11.37;7.10;;;16.70;56.30;;;;;;5120648;28;20438;-82
2022/11/13 06:06:03;;;;;;;7.80;6.73;;;16.80;56.90;;;;;;5118148;28;20439;-82
2022/11/13 06:08:31;;;;;;;9.10;7.27;;;16.70;56.10;;;;;;5118440;28;20444;-82
2022/11/13 06:11:00;;;;;;;8.77;7.07;;;16.70;56.20;;;;;;5119082;28;20467;-82
2022/11/13 06:13:28;;;;;;;7.63;6.73;;;16.70;56.30;;;;;;5116562;28;20451;-82
2022/11/13 06:16:00;;;;;;;8.40;6.53;;;16.70;56.30;;;;;;5116073;28;20454;-82
2022/11/13 06:18:28;;;;;;;9.70;7.43;;;16.70;56.30;;;;;;5116413;28;20451;-81
2022/11/13 06:21:02;;;;;;;8.97;7.40;;;16.70;56.20;;;;;;5116680;28;20435;-82
2022/11/13 06:23:32;;;;;;;9.00;7.23;;;16.70;56.30;;;;;;5119822;28;20448;-83
2022/11/13 06:26:01;;;;;;;8.80;6.70;;;16.60;56.20;;;;;;5122161;28;20450;-82
2022/11/13 06:28:29;;;;;;;7.80;6.57;;;16.60;56.30;;;;;;5121495;28;20443;-82
2022/11/13 06:31:02;;;;;;;8.47;6.83;;;16.60;56.30;;;;;;5120690;28;20567;-83
2022/11/13 06:33:31;;;;;;;9.80;7.40;;;16.60;56.30;;;;;;5120928;28;20451;-83
2022/11/13 06:36:02;;;;;;;7.17;6.47;;;16.60;56.20;;;;;;5120633;28;20463;-82
2022/11/13 06:38:32;;;;;;;8.97;7.03;;;16.60;56.20;;;;;;5120804;28;20443;-83
2022/11/13 06:41:01;;;;;;;9.27;7.20;;;16.60;56.30;;;;;;5121817;28;20454;-83
2022/11/13 06:43:28;;;;;;;8.40;7.00;;;16.60;56.20;;;;;;5119907;27;20457;-83
2022/11/13 06:45:57;;;;;;;8.70;7.00;;;16.50;56.10;;;;;;5119220;28;20470;-83
2022/11/13 06:48:25;;;;;;;7.80;6.67;;;16.50;56.20;;;;;;5118159;28;20447;-83
2022/11/13 06:50:54;;;;;;;7.60;6.80;;;16.50;56.70;;;;;;5118390;28;20499;-83
2022/11/13 06:53:24;;;;;;;9.20;7.20;;;16.50;56.10;;;;;;5119219;28;20443;-83
2022/11/13 06:55:52;;;;;;;8.77;7.23;;;16.50;56.10;;;;;;5121655;28;20443;-84
2022/11/13 06:58:20;;;;;;;7.83;6.43;;;16.50;56.10;;;;;;5119989;28;20444;-83
2022/11/13 07:00:48;;;;;;;9.03;7.10;;;16.50;56.10;;;;;;5120055;28;20443;-83
2022/11/13 07:03:16;;;;;;;10.37;7.43;;;16.50;56.10;;;;;;5120220;28;20451;-84
2022/11/13 07:05:45;;;;;;;8.60;7.50;;;16.50;56.00;;;;;;5120944;28;20451;-83
2022/11/13 07:08:13;;;;;;;7.40;6.60;;;16.50;56.20;;;;;;5122024;28;20443;-84
2022/11/13 07:10:42;;;;;;;8.67;7.03;;;16.50;56.00;;;;;;5121657;28;20490;-84
2022/11/13 07:13:10;;;;;;;8.07;6.90;;;16.50;56.10;;;;;;5122121;28;20440;-84
2022/11/13 07:15:39;;;;;;;8.73;6.77;;;16.50;56.10;;;;;;5122265;28;20467;-82
2022/11/13 07:18:08;;;;;;;8.43;6.70;;;16.50;56.00;;;;;;5121873;28;20463;-82
2022/11/13 07:20:37;;;;;;;9.03;7.37;;;16.50;56.00;;;;;;5121560;28;20467;-82
2022/11/13 07:23:05;;;;;;;8.43;7.07;;;16.50;55.90;;;;;;5120538;28;20447;-82
2022/11/13 07:25:34;;;;;;;8.90;7.20;;;16.50;55.90;;;;;;5120664;28;20498;-82
2022/11/13 07:28:04;;;;;;;9.87;7.80;;;16.50;55.70;;;;;;5120995;28;20435;-82
2022/11/13 07:30:32;;;;;;;9.23;7.67;;;16.50;56.00;;;;;;5120577;28;20551;-82
2022/11/13 07:33:02;;;;;;;8.27;7.27;;;16.50;56.00;;;;;;5119385;28;20531;-82
2022/11/13 07:35:30;;;;;;;8.00;7.17;;;16.50;55.90;;;;;;5118880;27;20460;-82
2022/11/13 07:37:58;;;;;;;8.80;7.00;;;16.50;55.80;;;;;;5120215;28;20428;-84
2022/11/13 07:40:26;;;;;;;8.57;7.43;;;16.50;55.90;;;;;;5122695;28;20432;-82
2022/11/13 07:42:58;;;;;;;8.00;7.20;;;16.50;56.10;;;;;;5119846;28;20428;-82
2022/11/13 07:45:28;;;;;;;8.83;7.27;;;16.50;55.90;;;;;;5117458;28;20539;-82
2022/11/13 07:47:59;;;;;;;9.10;7.40;;;16.40;55.80;;;;;;5117561;28;20444;-83
2022/11/13 07:50:27;;;;;;;9.77;7.30;;;16.50;56.10;;;;;;5118008;28;20470;-83
2022/11/13 07:52:57;;;;;;;8.90;7.23;;;16.50;56.10;;;;;;5117425;28;20450;-83
2022/11/13 07:55:25;;;;;;;11.17;7.57;;;16.50;56.00;;;;;;5117690;28;20464;-83
2022/11/13 07:57:55;;;;;;;8.23;7.00;;;16.50;56.10;;;;;;5118705;28;20446;-83
2022/11/13 08:00:24;;;;;;;7.87;6.77;;;16.60;56.10;;;;;;5117473;28;20436;-83
2022/11/13 08:02:53;;;;;;;10.43;7.10;;;16.60;56.20;;;;;;5118622;28;20448;-82
2022/11/13 08:05:21;;;;;;;8.30;6.47;;;16.60;56.20;;;;;;5117998;28;20460;-81
2022/11/13 08:07:50;;;;;;;7.03;6.33;;;16.60;56.10;;;;;;5118313;28;20450;-83
2022/11/13 08:10:19;;;;;;;9.27;7.30;;;16.70;56.10;;;;;;5118242;28;20472;-82
2022/11/13 08:12:47;;;;;;;8.40;7.30;;;16.80;56.30;;;;;;5117604;28;20448;-83
2022/11/13 08:15:15;;;;;;;9.23;7.17;;;16.80;56.30;;;;;;5116674;28;20456;-82
2022/11/13 08:17:43;;;;;;;8.93;7.07;;;16.80;56.10;;;;;;5115649;28;20443;-82
2022/11/13 08:20:12;;;;;;;9.10;6.90;;;16.90;56.20;;;;;;5118082;28;20439;-82
2022/11/13 08:22:40;;;;;;;9.63;7.53;;;17.00;56.50;;;;;;5117648;28;20436;-82
2022/11/13 08:25:09;;;;;;;7.93;6.80;;;17.00;56.40;;;;;;5114774;28;20464;-82
2022/11/13 08:27:37;;;;;;;11.10;7.37;;;17.10;56.40;;;;;;5116227;28;20436;-82
2022/11/13 08:30:06;;;;;;;10.37;7.33;;;17.20;56.70;;;;;;5117772;28;20451;-83
2022/11/13 08:32:35;;;;;;;9.17;6.57;;;17.30;56.80;;;;;;5118958;28;20443;-83
2022/11/13 08:35:03;;;;;;;8.80;7.37;;;17.40;57.10;;;;;;5115724;28;20455;-81
2022/11/13 08:37:33;;;;;;;8.43;7.07;;;17.60;57.30;;;;;;5116625;28;20454;-81
2022/11/13 08:40:01;;;;;;;7.67;6.90;;;17.80;57.50;;;;;;5115804;28;20444;-82
2022/11/13 08:42:30;;;;;;;8.87;7.13;;;18.00;57.60;;;;;;5116368;28;20444;-82
2022/11/13 08:44:58;;;;;;;8.87;7.30;;;18.30;57.80;;;;;;5116887;28;20464;-81
2022/11/13 08:47:27;;;;;;;7.90;7.10;;;18.50;57.90;;;;;;5116309;28;20443;-82
2022/11/13 08:49:56;;;;;;;8.43;6.77;;;18.80;58.00;;;;;;5117012;28;20436;-82
2022/11/13 08:52:25;;;;;;;8.33;6.90;;;19.00;57.90;;;;;;5117182;28;20479;-82
2022/11/13 08:54:54;;;;;;;7.40;6.30;;;19.20;57.90;;;;;;5119625;28;20492;-82
2022/11/13 08:57:22;;;;;;;7.60;6.73;;;19.50;58.00;;;;;;5119250;28;20509;-81
2022/11/13 08:59:50;;;;;;;7.40;6.63;;;19.70;57.80;;;;;;5119295;28;20452;-81
2022/11/13 09:02:19;;;;;;;7.90;6.83;;;20.00;58.00;;;;;;5119753;28;20436;-81
2022/11/13 09:04:47;;;;;;;8.83;6.73;;;20.20;57.80;;;;;;5119389;28;20458;-81
2022/11/13 09:07:16;;;;;;;8.80;6.70;;;20.40;57.90;;;;;;5119032;28;20455;-81
2022/11/13 09:09:44;;;;;;;10.83;7.47;;;20.50;57.70;;;;;;5117125;28;20455;-81
2022/11/13 09:12:14;;;;;;;9.53;7.50;;;20.70;57.70;;;;;;5113908;28;20470;-80
2022/11/13 09:14:42;;;;;;;8.00;7.20;;;20.90;57.70;;;;;;5113676;28;20468;-81
2022/11/13 09:17:10;;;;;;;7.83;7.03;;;21.00;57.50;;;;;;5114197;28;20448;-81
2022/11/13 09:19:38;;;;;;;7.40;6.70;;;21.20;58.10;;;;;;5114054;28;20439;-81
2022/11/13 09:22:06;;;;;;;8.70;7.00;;;21.30;57.50;;;;;;5114538;28;20440;-81
2022/11/13 09:24:34;;;;;;;10.20;7.20;;;21.40;57.50;;;;;;5113767;28;20474;-81
2022/11/13 09:27:02;;;;;;;7.50;6.70;;;21.50;57.40;;;;;;5113882;28;20443;-80
2022/11/13 09:29:32;;;;;;;6.63;5.97;;;21.60;57.40;;;;;;5114106;28;20443;-81
2022/11/13 09:32:00;;;;;;;7.10;6.40;;;21.80;57.50;;;;;;5113799;28;20517;-80
2022/11/13 09:34:29;;;;;;;7.33;6.60;;;21.90;57.40;;;;;;5114041;28;20464;-80
2022/11/13 09:36:57;;;;;;;6.60;6.00;;;22.10;57.40;;;;;;5115347;28;20440;-80
2022/11/13 09:39:25;;;;;;;7.00;6.30;;;22.30;57.20;;;;;;5117109;28;20451;-80
2022/11/13 09:41:55;;;;;;;8.13;6.40;;;22.30;57.00;;;;;;5119748;28;20489;-80
2022/11/13 09:44:28;;;;;;;7.23;6.53;;;22.40;56.90;;;;;;5125001;27;20474;-80
2022/11/13 09:47:00;;;;;;;8.37;7.00;;;22.50;57.10;;;;;;5127983;27;20443;-80
2022/11/13 09:49:29;;;;;;;7.17;6.47;;;22.70;57.00;;;;;;5134978;27;20446;-80
2022/11/13 09:51:59;;;;;;;7.43;6.73;;;22.80;56.90;;;;;;5140448;27;20474;-80
2022/11/13 09:54:33;;;;;;;6.97;6.27;;;23.00;56.70;;;;;;5141905;27;20496;-80
2022/11/13 09:57:04;;;;;;;7.23;6.50;;;23.10;56.60;;;;;;5141709;27;20449;-81
2022/11/13 09:59:35;;;;;;;7.43;6.73;;;23.30;56.50;;;;;;5141785;27;20447;-81
2022/11/13 10:02:13;;;;;;;8.07;7.10;;;23.40;56.20;;;;;;5140968;27;20427;-82
2022/11/13 10:04:51;;;;;;;7.47;6.40;;;23.60;56.00;;;;;;5133878;27;20459;-81
2022/11/13 10:07:24;;;;;;;6.90;6.30;;;23.80;56.00;;;;;;5121939;28;20450;-81
2022/11/13 10:10:01;;;;;;;6.70;6.20;;;23.90;55.70;;;;;;5120424;28;20795;-82
2022/11/13 10:12:29;;;;;;;7.00;6.30;;;24.10;55.50;;;;;;5121606;28;20446;-80
2022/11/13 10:15:00;;;;;;;6.93;6.33;;;24.20;55.40;;;;;;5121116;28;20467;-82
2022/11/13 10:17:32;;;;;;;6.70;6.10;;;24.30;55.20;;;;;;5121319;28;20414;-82
2022/11/13 10:20:01;;;;;;;7.30;6.60;;;24.40;55.20;;;;;;5122292;28;20443;-82
2022/11/13 10:22:32;;;;;;;7.57;6.87;;;24.60;55.20;;;;;;5121566;28;20422;-80
2022/11/13 10:25:12;;;;;;;6.60;6.00;;;24.80;55.00;;;;;;5122153;28;20517;-82
2022/11/13 10:27:40;;;;;;;6.27;5.67;;;24.90;54.60;;;;;;5121414;28;20414;-80
2022/11/13 10:30:14;;;;;;;6.50;5.90;;;25.00;54.70;;;;;;5121183;28;20515;-82
2022/11/13 10:32:44;;;;;;;8.13;6.00;;;25.20;54.40;;;;;;5120611;28;20562;-81
2022/11/13 10:35:44;;;;;;;6.60;6.00;;;25.40;54.10;;;;;;5119688;28;20489;-79
2022/11/13 10:38:19;;;;;;;7.57;6.77;;;25.60;53.80;;;;;;5055125;28;20442;-80
2022/11/13 10:40:47;;;;;;;6.93;6.30;;;25.80;53.70;;;;;;5107224;28;20424;-80
2022/11/13 10:43:16;;;;;;;6.37;5.83;;;25.90;53.40;;;;;;5118236;28;20431;-80
2022/11/13 10:45:54;;;;;;;6.20;5.70;;;26.10;53.10;;;;;;5118459;28;20427;-79
2022/11/13 10:48:24;;;;;;;7.10;6.40;;;26.30;53.00;;;;;;5118065;28;20383;-79
2022/11/13 10:50:54;;;;;;;6.77;6.17;;;26.50;52.60;;;;;;5118533;28;20467;-80
2022/11/13 10:53:22;;;;;;;6.60;5.93;;;26.70;52.30;;;;;;5119268;28;20633;-80
2022/11/13 10:55:51;;;;;;;6.30;5.70;;;26.90;52.10;;;;;;5119462;28;20443;-80
2022/11/13 10:58:19;;;;;;;6.70;6.10;;;27.00;51.80;;;;;;5118922;28;20448;-80
2022/11/13 11:00:48;;;;;;;6.37;5.87;;;27.10;51.50;;;;;;5118612;28;20422;-80
2022/11/13 11:03:18;;;;;;;6.20;5.70;;;27.30;51.30;;;;;;5118463;28;20416;-80
2022/11/13 11:05:55;;;;;;;6.47;5.87;;;27.40;51.00;;;;;;5118372;28;20447;-80
2022/11/13 11:08:26;;;;;;;6.30;5.80;;;27.60;50.80;;;;;;5119102;28;20422;-81
2022/11/13 11:13:42;;;;;;;5.70;5.30;;;27.90;50.40;;;;;;5119685;28;20454;-80
2022/11/13 11:16:12;;;;;;;5.93;5.33;;;28.00;50.10;;;;;;5119047;28;20444;-79
2022/11/13 11:18:42;;;;;;;6.43;5.90;;;28.30;49.70;;;;;;5119212;28;20422;-80
2022/11/13 11:21:13;;;;;;;5.77;5.37;;;28.50;49.30;;;;;;5119821;28;20422;-80
2022/11/13 11:23:43;;;;;;;6.43;5.83;;;28.70;49.10;;;;;;5119377;28;20456;-80
2022/11/13 11:26:14;;;;;;;6.00;5.40;;;28.80;48.50;;;;;;5118650;28;20443;-79
2022/11/13 11:28:44;;;;;;;5.33;4.93;;;29.00;48.10;;;;;;5119412;28;20439;-80
2022/11/13 11:31:16;;;;;;;5.87;5.40;;;29.10;48.00;;;;;;5118292;28;20422;-81
2022/11/13 11:33:49;;;;;;;5.60;5.20;;;29.30;47.60;;;;;;5118592;28;20475;-80
2022/11/13 11:36:27;;;;;;;5.83;5.30;;;29.40;47.30;;;;;;5118950;28;20387;-80
2022/11/13 11:38:59;;;;;;;5.37;4.97;;;29.60;47.00;;;;;;5119231;28;20455;-79
2022/11/13 11:41:30;;;;;;;5.40;5.00;;;29.70;46.70;;;;;;5118729;28;20450;-81
2022/11/13 11:44:03;;;;;;;5.47;5.07;;;30.00;46.30;;;;;;5118261;28;20471;-81
2022/11/13 11:46:31;;;;;;;5.60;5.20;;;30.20;46.10;;;;;;5117796;28;20451;-81
2022/11/13 11:49:00;;;;;;;5.40;5.00;;;30.30;45.80;;;;;;5118877;28;20439;-81
2022/11/13 11:51:32;;;;;;;5.20;4.80;;;30.40;45.50;;;;;;5118709;28;20444;-81
2022/11/13 11:54:07;;;;;;;5.83;5.40;;;30.60;45.10;;;;;;5117711;28;20479;-81
2022/11/13 11:56:36;;;;;;;5.30;4.87;;;30.80;44.80;;;;;;5118496;28;20431;-80
2022/11/13 11:59:13;;;;;;;5.30;4.90;;;31.00;44.50;;;;;;5118446;28;20450;-81
2022/11/13 12:01:50;;;;;;;5.37;4.97;;;31.20;44.30;;;;;;5117872;28;20832;-81
2022/11/13 12:04:28;;;;;;;5.07;4.70;;;31.30;43.90;;;;;;5118401;28;20464;-80
2022/11/13 12:07:05;;;;;;;5.27;4.93;;;31.50;43.60;;;;;;5117647;28;20443;-81
2022/11/13 12:09:35;;;;;;;5.20;4.80;;;31.70;43.50;;;;;;5117614;28;20432;-81
2022/11/13 12:12:07;;;;;;;4.63;4.33;;;31.70;43.20;;;;;;5117971;28;20439;-81
2022/11/13 12:14:40;;;;;;;4.40;4.10;;;31.70;43.10;;;;;;5117748;28;20478;-80
2022/11/13 12:17:26;;;;;;;5.70;4.40;;;31.80;43.00;;;;;;5117193;28;20424;-80
2022/11/13 12:20:06;;;;;;;5.00;4.70;;;32.00;42.80;;;;;;5117360;28;20446;-79
2022/11/13 12:22:48;;;;;;;4.90;4.60;;;32.10;42.60;;;;;;5118265;28;20451;-78
2022/11/13 12:25:19;;;;;;;4.80;4.50;;;32.30;42.50;;;;;;5117545;28;20464;-80
2022/11/13 12:27:49;;;;;;;4.77;4.47;;;32.30;42.20;;;;;;5117284;28;20440;-80
2022/11/13 12:30:18;;;;;;;5.23;4.70;;;32.50;42.10;;;;;;5117582;28;20444;-79
2022/11/13 12:33:02;;;;;;;4.90;4.50;;;32.50;41.80;;;;;;5117447;28;20891;-80
2022/11/13 12:35:29;;;;;;;4.77;4.47;;;32.70;41.70;;;;;;5117681;28;20474;-79
2022/11/13 12:38:04;;;;;;;5.10;4.70;;;32.70;41.50;;;;;;5116589;28;20443;-80
2022/11/13 12:40:34;;;;;;;4.77;4.47;;;32.80;41.40;;;;;;5117580;28;20431;-79
2022/11/13 12:43:30;;;;;;;4.63;4.43;;;32.90;41.20;;;;;;5117015;28;20473;-80
2022/11/13 12:46:00;;;;;;;4.43;4.13;;;33.00;41.00;;;;;;5117022;28;20865;-79
2022/11/13 12:48:32;;;;;;;4.93;4.60;;;33.00;40.70;;;;;;5116963;28;20821;-79
2022/11/13 12:51:01;;;;;;;4.23;4.03;;;33.00;40.60;;;;;;5116836;28;20444;-79
2022/11/13 12:53:31;;;;;;;4.53;4.23;;;32.90;40.60;;;;;;5116743;28;20480;-79
2022/11/13 12:56:00;;;;;;;4.00;3.80;;;32.70;40.80;;;;;;5116603;28;20451;-79
2022/11/13 12:58:29;;;;;;;4.80;4.50;;;32.70;41.00;;;;;;5116856;28;20448;-79
2022/11/13 13:01:01;;;;;;;4.67;4.40;;;32.70;40.90;;;;;;5116757;28;20440;-79
2022/11/13 13:03:44;;;;;;;3.97;3.80;;;32.70;40.90;;;;;;5117134;28;20499;-80
2022/11/13 13:06:37;;;;;;;4.60;4.30;;;32.70;40.90;;;;;;5117218;28;20471;-79